Time;durP1;ratioP1;P1;durP2;ratioP2;P2;SDS_P1;SDS_P2;PMS_P1;PMS_P2;Temp;Humidity;BMP_temperature;BMP_pressure;BME280_temperature;BME280_humidity;BME280_pressure;Samples;Min_cycle;Max_cycle;Signal;HPM_P1;HPM_P2
2021/12/02 00:05:05;;;;;;;3.35;1.48;;;23.20;60.50;;;;;;31537942;28;20045;-57
2021/12/02 00:35:30;;;;;;;0.68;0.68;;;22.90;60.70;;;;;;31577489;28;20102;-58
2021/12/02 00:50:34;;;;;;;0.50;0.50;;;22.90;60.80;;;;;;31553850;28;20044;-58
2021/12/02 01:05:36;;;;;;;0.47;0.47;;;22.80;61.20;;;;;;31534223;28;20049;-45
2021/12/02 01:20:39;;;;;;;0.30;0.30;;;22.70;61.60;;;;;;31560340;28;20057;-47
2021/12/02 01:35:42;;;;;;;0.10;0.10;;;22.60;62.00;;;;;;31538051;28;20097;-49
2021/12/02 01:50:58;;;;;;;0.10;0.10;;;23.10;62.00;;;;;;31262449;28;10000484;-56
2021/12/02 02:06:04;;;;;;;0.10;0.10;;;23.20;61.50;;;;;;31594744;28;20052;-47
2021/12/02 02:21:13;;;;;;;0.20;0.20;;;23.10;61.70;;;;;;31579827;28;20065;-45
2021/12/02 02:36:20;;;;;;;0.10;0.10;;;23.00;62.20;;;;;;31548645;28;20044;-58
2021/12/02 02:51:22;;;;;;;0.15;0.10;;;22.90;62.50;;;;;;31590633;28;20052;-49
2021/12/02 03:21:46;;;;;;;0.10;0.10;;;22.80;62.30;;;;;;31554055;28;20071;-57
2021/12/02 03:36:48;;;;;;;0.10;0.10;;;22.70;63.00;;;;;;31582939;28;20068;-57
2021/12/02 03:51:50;;;;;;;0.10;0.10;;;23.20;62.80;;;;;;31532608;28;20060;-47
2021/12/02 04:06:52;;;;;;;0.10;0.10;;;23.30;62.60;;;;;;31538183;28;21053;-57
2021/12/02 04:21:54;;;;;;;0.13;0.13;;;23.20;62.60;;;;;;31584462;28;20068;-42
2021/12/02 04:36:56;;;;;;;0.10;0.10;;;23.00;62.60;;;;;;31622730;28;20089;-43
2021/12/02 04:51:59;;;;;;;0.10;0.10;;;22.90;62.50;;;;;;31594150;28;20186;-44
2021/12/02 05:07:01;;;;;;;0.15;0.15;;;22.90;62.50;;;;;;31592692;28;20048;-53
2021/12/02 05:22:03;;;;;;;0.10;0.10;;;22.80;62.60;;;;;;31573972;28;20056;-52
2021/12/02 05:37:05;;;;;;;5.97;0.40;;;22.90;62.90;;;;;;31580070;28;20045;-57
2021/12/02 05:52:08;;;;;;;0.10;0.10;;;23.30;63.20;;;;;;31596150;28;20048;-57
2021/12/02 06:07:10;;;;;;;0.10;0.10;;;23.20;62.50;;;;;;31556286;28;20076;-58
2021/12/02 06:22:13;;;;;;;8.00;1.88;;;23.10;62.70;;;;;;31615979;28;20041;-58
2021/12/02 06:37:16;;;;;;;8.93;2.40;;;23.00;62.60;;;;;;31576875;28;20052;-58
2021/12/02 06:52:18;;;;;;;13.07;2.80;;;22.90;62.70;;;;;;31556850;28;20041;-60
2021/12/02 07:07:20;;;;;;;2.47;1.20;;;22.70;63.30;;;;;;31536656;28;20069;-60
2021/12/02 07:22:22;;;;;;;18.70;12.80;;;22.90;62.70;;;;;;31540172;28;20056;-56
2021/12/02 07:37:24;;;;;;;14.30;9.40;;;23.00;61.70;;;;;;31647066;28;20049;-56
2021/12/02 07:52:26;;;;;;;11.35;8.32;;;23.00;60.40;;;;;;31674740;28;20048;-51
2021/12/02 08:07:29;;;;;;;24.40;17.90;;;22.90;59.60;;;;;;31694703;28;20068;-50
2021/12/02 08:22:32;;;;;;;11.57;9.30;;;22.60;56.70;;;;;;31619691;28;20104;-49
2021/12/02 08:37:37;;;;;;;5.78;4.35;;;22.40;54.30;;;;;;31624458;28;20044;-54
2021/12/02 08:52:39;;;;;;;4.10;3.40;;;22.50;54.90;;;;;;31621073;28;20119;-51
2021/12/02 09:07:41;;;;;;;3.22;2.88;;;23.00;55.20;;;;;;31618375;28;20601;-59
2021/12/02 09:22:45;;;;;;;6.72;3.00;;;23.10;56.40;;;;;;31519968;28;20057;-59
2021/12/02 09:37:47;;;;;;;3.42;2.28;;;23.00;56.90;;;;;;31492003;28;20049;-58
2021/12/02 09:52:51;;;;;;;20.02;15.20;;;22.90;57.60;;;;;;31512020;28;20138;-53
2021/12/02 10:07:56;;;;;;;35.67;26.45;;;22.80;57.10;;;;;;31643310;28;20130;-60
2021/12/02 10:23:19;;;;;;;31.00;23.95;;;22.60;57.00;;;;;;31686101;28;20052;-60
2021/12/02 10:38:37;;;;;;;24.88;19.63;;;22.50;57.30;;;;;;31631689;28;20048;-58
2021/12/02 10:53:59;;;;;;;20.88;17.73;;;22.50;58.40;;;;;;31629644;28;20045;-61
2021/12/02 11:09:01;;;;;;;22.05;16.83;;;23.00;58.10;;;;;;31628038;28;20082;-58
2021/12/02 11:24:05;;;;;;;19.77;15.30;;;23.10;57.80;;;;;;31625089;28;20049;-59
2021/12/02 11:39:08;;;;;;;44.05;34.72;;;23.00;57.90;;;;;;31657317;28;20048;-55
2021/12/02 11:54:10;;;;;;;23.90;18.13;;;22.80;56.40;;;;;;31635298;28;20048;-48
2021/12/02 12:09:17;;;;;;;29.88;24.30;;;22.50;55.90;;;;;;31621790;28;20103;-57
2021/12/02 12:24:19;;;;;;;24.70;19.90;;;22.30;56.00;;;;;;31618858;28;20064;-61
2021/12/02 12:39:26;;;;;;;20.30;16.38;;;22.80;55.30;;;;;;31615309;28;20052;-61
2021/12/02 12:54:28;;;;;;;20.33;16.52;;;22.90;55.40;;;;;;31619114;28;20048;-54
2021/12/02 13:09:37;;;;;;;19.88;14.85;;;23.00;56.10;;;;;;31620168;28;20064;-52
2021/12/02 13:24:41;;;;;;;18.80;14.43;;;22.90;56.70;;;;;;31636404;28;20075;-54
2021/12/02 13:39:43;;;;;;;16.38;12.13;;;22.80;56.80;;;;;;31638710;28;20036;-58
2021/12/02 13:54:52;;;;;;;17.05;12.30;;;22.70;56.90;;;;;;31631280;28;20040;-59
2021/12/02 14:09:59;;;;;;;19.20;11.37;;;22.90;56.90;;;;;;31633720;28;20044;-52
2021/12/02 14:25:03;;;;;;;15.70;10.80;;;23.10;57.00;;;;;;31633126;28;20048;-58
2021/12/02 14:40:07;;;;;;;13.43;9.88;;;23.00;57.20;;;;;;31632484;28;20100;-53
2021/12/02 14:55:14;;;;;;;9.43;8.40;;;23.00;57.60;;;;;;31631258;28;20070;-52
2021/12/02 15:10:26;;;;;;;10.52;8.80;;;22.90;57.70;;;;;;31631429;28;20100;-59
2021/12/02 15:25:35;;;;;;;15.60;9.05;;;22.70;57.90;;;;;;31627270;28;20040;-55
2021/12/02 15:40:39;;;;;;;10.00;7.68;;;23.00;57.70;;;;;;31624260;28;20060;-53
2021/12/02 15:55:48;;;;;;;9.32;6.85;;;23.20;57.60;;;;;;31625633;28;20513;-55
2021/12/02 16:26:08;;;;;;;9.48;6.75;;;23.00;58.00;;;;;;31624657;28;20102;-46
2021/12/02 16:41:10;;;;;;;10.80;6.85;;;22.90;57.90;;;;;;31621635;28;20045;-45
2021/12/02 16:56:13;;;;;;;13.80;6.30;;;22.80;58.10;;;;;;31631590;28;20096;-49
2021/12/02 17:11:15;;;;;;;11.48;6.10;;;23.10;59.10;;;;;;31641424;28;20044;-45
2021/12/02 17:26:18;;;;;;;12.35;6.18;;;23.30;58.80;;;;;;31619254;28;20063;-47
2021/12/02 17:41:21;;;;;;;9.13;5.00;;;23.40;58.80;;;;;;31283947;28;10000073;-46
2021/12/02 17:56:24;;;;;;;14.77;6.10;;;23.20;58.80;;;;;;31631738;28;20050;-48
2021/12/02 18:11:26;;;;;;;6.38;5.13;;;23.10;59.20;;;;;;31579127;28;20048;-53
2021/12/02 18:26:29;;;;;;;7.95;5.63;;;23.00;59.10;;;;;;31621773;28;20064;-45
2021/12/02 18:41:33;;;;;;;8.60;5.93;;;23.00;59.20;;;;;;31531910;28;20092;-58
2021/12/02 18:56:35;;;;;;;8.85;5.90;;;22.90;59.70;;;;;;31600642;28;20068;-47
2021/12/02 19:26:59;;;;;;;11.65;5.45;;;22.90;60.10;;;;;;31606557;28;20064;-49
2021/12/02 19:42:01;;;;;;;10.57;6.82;;;22.80;60.00;;;;;;31626936;28;20045;-51
2021/12/02 19:57:04;;;;;;;10.93;5.85;;;22.70;60.00;;;;;;31512210;28;20100;-52
2021/12/02 20:12:06;;;;;;;10.95;5.65;;;22.60;60.50;;;;;;31500452;28;20048;-50
2021/12/02 20:27:08;;;;;;;9.27;5.25;;;22.70;60.30;;;;;;31496911;28;20072;-49
2021/12/02 20:42:10;;;;;;;6.15;5.30;;;23.10;60.20;;;;;;31527998;28;20037;-52
2021/12/02 20:57:13;;;;;;;6.70;4.50;;;23.20;59.60;;;;;;31620432;28;20045;-50
2021/12/02 21:12:18;;;;;;;6.30;4.50;;;23.20;59.60;;;;;;31622482;28;20094;-51
2021/12/02 21:27:20;;;;;;;14.10;10.57;;;23.10;59.60;;;;;;31610439;28;20104;-49
2021/12/02 21:42:25;;;;;;;15.45;9.50;;;23.00;59.70;;;;;;31629021;28;20116;-49
2021/12/02 21:57:29;;;;;;;10.68;7.90;;;23.10;59.80;;;;;;31635001;28;20051;-44
2021/12/02 22:12:31;;;;;;;9.85;7.63;;;23.10;59.80;;;;;;31635548;28;20056;-42
2021/12/02 22:27:33;;;;;;;8.73;6.80;;;23.00;60.00;;;;;;31626791;28;20502;-56
2021/12/02 22:42:35;;;;;;;6.82;6.13;;;23.00;60.00;;;;;;31237299;28;10000084;-55
2021/12/02 22:57:37;;;;;;;37.42;29.65;;;23.00;60.10;;;;;;31494991;28;20082;-55
2021/12/02 23:12:41;;;;;;;24.17;19.05;;;22.90;59.90;;;;;;31494871;28;20060;-46
2021/12/02 23:28:07;;;;;;;15.55;11.35;;;22.80;60.40;;;;;;31492655;28;20094;-59
2021/12/02 23:43:10;;;;;;;9.60;7.78;;;22.70;60.60;;;;;;31529647;28;20037;-59
2021/12/02 23:58:13;;;;;;;6.65;5.22;;;22.60;60.90;;;;;;31612154;28;20049;-58
